Toutle, WA

4:38 PM PST on February 27, 2015 (GMT -0800)
Atmore Acres | Change Station
CLOSE
Current Station
Personal Weather Station
Location: Toutle, WA
Elevation: 512 ft
Nearby Weather Stations

Elev 512 ft 46.32 °N, 122.72 °W | Updated 14 minutes ago

Rain
Rain
47.1 °F
Feels Like 47 °F
N
0.0
Wind Variable Wind from SSW
Gusts 0.0 mph

Today
High -- | Low -- °F
--% Chance of Precip.
Yesterday
High -- | Low -- °F
Precip. -- in
6:53 AM 5:53 PM
Waxing Gibbous, 73% visible
Pressure 29.76 in
Visibility 10.0 miles
Clouds Mostly Cloudy 2700 ft
Mostly Cloudy 3300 ft
Overcast 4000 ft
Windchill 47 °F
Dew Point 47 °F
Humidity 98%
Rainfall 0.33 in
Snow Depth Not available.
UV 0 out of 12
Pollen .40 out of 12
Air Quality Not available.
Flu Activity Not available.
METAR KKLS 280035Z 33005KT 10SM BKN027 BKN033 OVC040 11/06 A2976 RMK AO1 P0010

More Conditions Fewer Conditions

Pressure 29.76 in
Visibility 10.0 miles
Clouds Mostly Cloudy 2700 ft
Mostly Cloudy 3300 ft
Overcast 4000 ft
Windchill 47 °F
Dew Point 47 °F
Humidity 98%
Rainfall 0.33 in
Snow Depth Not available.
UV 0 out of 12
Pollen .40 out of 12
Air Quality Not available.
Flu Activity Not available.
METAR KKLS 280035Z 33005KT 10SM BKN027 BKN033 OVC040 11/06 A2976 RMK AO1 P0010

More Conditions Fewer Conditions

10-Day Weather Forecast

Almanac

Astronomy

Feb. 27, 2015 Rise Set
Actual Time
Civil Twilight
Nautical Twilight
Astronomical Twilight
Moon
Length of Visible Light
Length of Day
Tomorrow will be .
, % of the Moon is Illuminated

Today's Extremes

State Highs State Lows

Community

WunderPhotos

Upload Photos

1,800,904 photos uploaded!

WunderBlogs® & News

Nearby

Air Quality

  Air Quality AQ Index Pollutant
Not available.

Snow Depth

Station Depth Elevation

Earthquake Activity

City Distance Mag. Time & Date
Minimum magnitude displayed is 2.5.

Coastal Water Temperatures

Place Temperature

Nearby Weather Stations